sensor_id;sensor_type;location;lat;lon;timestamp;P1;P2;P0
76049;PMS7003;64967;50.234;19.224;2023-12-14T00:01:42;16.25;15.75;13.50
76049;PMS7003;64967;50.234;19.224;2023-12-14T00:04:09;13.25;11.00;8.00
76049;PMS7003;64967;50.234;19.224;2023-12-14T00:06:35;10.75;9.50;6.00
76049;PMS7003;64967;50.234;19.224;2023-12-14T00:09:02;17.50;13.50;9.75
76049;PMS7003;64967;50.234;19.224;2023-12-14T00:11:29;16.00;16.00;10.75
76049;PMS7003;64967;50.234;19.224;2023-12-14T00:13:56;15.25;11.00;9.00
76049;PMS7003;64967;50.234;19.224;2023-12-14T00:16:23;11.50;10.25;9.00
76049;PMS7003;64967;50.234;19.224;2023-12-14T00:18:49;13.50;10.50;8.00
76049;PMS7003;64967;50.234;19.224;2023-12-14T00:21:16;17.00;14.00;10.25
76049;PMS7003;64967;50.234;19.224;2023-12-14T00:23:42;14.25;12.00;9.25
76049;PMS7003;64967;50.234;19.224;2023-12-14T00:26:09;16.50;15.25;12.75
76049;PMS7003;64967;50.234;19.224;2023-12-14T00:28:35;16.50;13.00;10.25
76049;PMS7003;64967;50.234;19.224;2023-12-14T00:31:02;20.25;14.75;10.00
76049;PMS7003;64967;50.234;19.224;2023-12-14T00:33:29;11.00;10.25;7.00
76049;PMS7003;64967;50.234;19.224;2023-12-14T00:35:56;17.50;14.00;9.00
76049;PMS7003;64967;50.234;19.224;2023-12-14T00:38:22;14.25;11.75;7.50
76049;PMS7003;64967;50.234;19.224;2023-12-14T00:40:49;22.00;19.00;11.00
76049;PMS7003;64967;50.234;19.224;2023-12-14T00:43:18;15.00;11.00;9.00
76049;PMS7003;64967;50.234;19.224;2023-12-14T00:45:45;26.75;23.75;15.75
76049;PMS7003;64967;50.234;19.224;2023-12-14T00:48:12;25.75;19.25;13.75
76049;PMS7003;64967;50.234;19.224;2023-12-14T00:50:38;24.25;21.75;16.25
76049;PMS7003;64967;50.234;19.224;2023-12-14T00:53:05;26.75;23.50;14.75
76049;PMS7003;64967;50.234;19.224;2023-12-14T00:55:32;20.00;12.25;10.00
76049;PMS7003;64967;50.234;19.224;2023-12-14T00:57:58;26.75;20.25;14.00
76049;PMS7003;64967;50.234;19.224;2023-12-14T01:00:25;19.75;18.00;10.75
76049;PMS7003;64967;50.234;19.224;2023-12-14T01:02:51;24.25;18.75;12.50
76049;PMS7003;64967;50.234;19.224;2023-12-14T01:05:18;23.25;15.75;10.25
76049;PMS7003;64967;50.234;19.224;2023-12-14T01:07:45;16.25;15.75;10.00
76049;PMS7003;64967;50.234;19.224;2023-12-14T01:10:11;15.75;15.25;11.00
76049;PMS7003;64967;50.234;19.224;2023-12-14T01:12:38;15.75;13.00;11.00
76049;PMS7003;64967;50.234;19.224;2023-12-14T01:15:05;11.25;9.25;7.25
76049;PMS7003;64967;50.234;19.224;2023-12-14T01:17:32;9.75;7.50;5.50
76049;PMS7003;64967;50.234;19.224;2023-12-14T01:20:06;11.50;7.75;5.50
76049;PMS7003;64967;50.234;19.224;2023-12-14T01:22:33;6.25;6.25;5.50
76049;PMS7003;64967;50.234;19.224;2023-12-14T01:25:00;9.50;8.25;6.00
76049;PMS7003;64967;50.234;19.224;2023-12-14T01:27:27;9.50;8.50;7.50
76049;PMS7003;64967;50.234;19.224;2023-12-14T01:29:54;7.75;7.00;6.50
76049;PMS7003;64967;50.234;19.224;2023-12-14T01:32:20;7.00;6.00;3.50
76049;PMS7003;64967;50.234;19.224;2023-12-14T01:34:47;7.50;6.25;5.25
76049;PMS7003;64967;50.234;19.224;2023-12-14T01:37:14;10.25;10.00;7.25
76049;PMS7003;64967;50.234;19.224;2023-12-14T01:39:40;14.50;8.50;6.50
76049;PMS7003;64967;50.234;19.224;2023-12-14T01:42:07;10.00;10.00;7.25
76049;PMS7003;64967;50.234;19.224;2023-12-14T01:44:34;11.25;7.00;6.00
76049;PMS7003;64967;50.234;19.224;2023-12-14T01:47:00;18.00;10.75;7.00
76049;PMS7003;64967;50.234;19.224;2023-12-14T01:49:27;13.75;12.00;7.00
76049;PMS7003;64967;50.234;19.224;2023-12-14T01:51:53;10.50;7.00;5.00
76049;PMS7003;64967;50.234;19.224;2023-12-14T01:54:20;10.75;9.00;7.00
76049;PMS7003;64967;50.234;19.224;2023-12-14T01:56:47;21.75;16.25;10.75
76049;PMS7003;64967;50.234;19.224;2023-12-14T01:59:14;25.25;19.25;13.25
76049;PMS7003;64967;50.234;19.224;2023-12-14T02:01:44;17.75;16.00;10.50
76049;PMS7003;64967;50.234;19.224;2023-12-14T02:04:13;16.50;15.50;12.50
76049;PMS7003;64967;50.234;19.224;2023-12-14T02:06:41;15.50;11.75;9.25
76049;PMS7003;64967;50.234;19.224;2023-12-14T02:09:07;13.00;9.50;6.50
76049;PMS7003;64967;50.234;19.224;2023-12-14T02:11:34;13.25;10.75;7.00
76049;PMS7003;64967;50.234;19.224;2023-12-14T02:14:11;18.75;18.00;12.00
76049;PMS7003;64967;50.234;19.224;2023-12-14T02:16:38;32.00;24.75;16.00
76049;PMS7003;64967;50.234;19.224;2023-12-14T02:19:05;16.75;13.00;9.25
76049;PMS7003;64967;50.234;19.224;2023-12-14T02:21:32;28.50;22.00;14.00
76049;PMS7003;64967;50.234;19.224;2023-12-14T02:23:59;21.75;15.75;10.00
76049;PMS7003;64967;50.234;19.224;2023-12-14T02:26:25;20.75;17.00;11.25
76049;PMS7003;64967;50.234;19.224;2023-12-14T02:28:52;24.00;19.75;13.50
76049;PMS7003;64967;50.234;19.224;2023-12-14T02:31:19;20.75;19.00;10.25
76049;PMS7003;64967;50.234;19.224;2023-12-14T02:33:46;18.75;14.75;10.00
76049;PMS7003;64967;50.234;19.224;2023-12-14T02:36:12;18.75;15.00;10.00
76049;PMS7003;64967;50.234;19.224;2023-12-14T02:38:39;31.25;24.00;15.50
76049;PMS7003;64967;50.234;19.224;2023-12-14T02:41:06;27.75;20.75;14.25
76049;PMS7003;64967;50.234;19.224;2023-12-14T02:43:33;31.25;20.00;13.75
76049;PMS7003;64967;50.234;19.224;2023-12-14T02:46:00;28.00;21.75;14.25
76049;PMS7003;64967;50.234;19.224;2023-12-14T02:48:29;27.50;22.50;14.50
76049;PMS7003;64967;50.234;19.224;2023-12-14T02:50:56;23.50;19.00;12.50
76049;PMS7003;64967;50.234;19.224;2023-12-14T02:53:23;21.75;18.25;10.50
76049;PMS7003;64967;50.234;19.224;2023-12-14T02:55:49;26.50;20.75;15.00
76049;PMS7003;64967;50.234;19.224;2023-12-14T02:58:16;26.50;22.25;14.50
76049;PMS7003;64967;50.234;19.224;2023-12-14T03:00:45;27.75;20.00;13.75
76049;PMS7003;64967;50.234;19.224;2023-12-14T03:03:11;11.00;8.75;3.00
76049;PMS7003;64967;50.234;19.224;2023-12-14T03:05:38;14.50;12.75;9.50
76049;PMS7003;64967;50.234;19.224;2023-12-14T03:08:05;13.50;10.25;7.00
76049;PMS7003;64967;50.234;19.224;2023-12-14T03:10:31;9.75;7.25;6.00
76049;PMS7003;64967;50.234;19.224;2023-12-14T03:12:58;11.00;10.00;7.00
76049;PMS7003;64967;50.234;19.224;2023-12-14T03:15:25;9.50;5.00;3.00
76049;PMS7003;64967;50.234;19.224;2023-12-14T03:17:51;12.25;9.75;5.75
76049;PMS7003;64967;50.234;19.224;2023-12-14T03:20:18;10.75;6.25;3.00
76049;PMS7003;64967;50.234;19.224;2023-12-14T03:22:44;11.25;9.50;6.00
76049;PMS7003;64967;50.234;19.224;2023-12-14T03:25:11;19.00;15.75;10.00
76049;PMS7003;64967;50.234;19.224;2023-12-14T03:27:38;19.00;12.50;7.00
76049;PMS7003;64967;50.234;19.224;2023-12-14T03:30:04;11.00;7.00;5.50
76049;PMS7003;64967;50.234;19.224;2023-12-14T03:32:34;15.75;13.50;8.50
76049;PMS7003;64967;50.234;19.224;2023-12-14T03:35:02;10.25;9.00;6.00
76049;PMS7003;64967;50.234;19.224;2023-12-14T03:37:28;20.25;12.50;9.00
76049;PMS7003;64967;50.234;19.224;2023-12-14T03:39:55;11.00;9.00;6.00
76049;PMS7003;64967;50.234;19.224;2023-12-14T03:42:22;10.00;7.75;3.00
76049;PMS7003;64967;50.234;19.224;2023-12-14T03:44:49;17.50;15.50;9.75
76049;PMS7003;64967;50.234;19.224;2023-12-14T03:47:15;29.25;18.75;12.25
76049;PMS7003;64967;50.234;19.224;2023-12-14T03:49:42;17.25;15.25;10.25
76049;PMS7003;64967;50.234;19.224;2023-12-14T03:52:09;29.25;20.75;12.50
76049;PMS7003;64967;50.234;19.224;2023-12-14T03:54:35;46.00;33.75;20.00
76049;PMS7003;64967;50.234;19.224;2023-12-14T03:57:02;47.25;35.25;23.75
76049;PMS7003;64967;50.234;19.224;2023-12-14T03:59:29;51.67;41.00;25.00
76049;PMS7003;64967;50.234;19.224;2023-12-14T04:01:55;52.75;34.75;23.00
76049;PMS7003;64967;50.234;19.224;2023-12-14T04:04:22;36.25;29.00;17.25
76049;PMS7003;64967;50.234;19.224;2023-12-14T04:06:49;39.75;25.00;14.00
76049;PMS7003;64967;50.234;19.224;2023-12-14T04:09:15;21.50;18.50;13.25
76049;PMS7003;64967;50.234;19.224;2023-12-14T04:11:42;23.50;21.50;14.00
76049;PMS7003;64967;50.234;19.224;2023-12-14T04:14:09;20.00;14.75;10.00
76049;PMS7003;64967;50.234;19.224;2023-12-14T04:16:36;16.00;16.00;14.00
76049;PMS7003;64967;50.234;19.224;2023-12-14T04:19:03;19.75;15.50;10.75
76049;PMS7003;64967;50.234;19.224;2023-12-14T04:21:30;21.00;18.00;9.50
76049;PMS7003;64967;50.234;19.224;2023-12-14T04:23:56;22.00;16.00;10.25
76049;PMS7003;64967;50.234;19.224;2023-12-14T04:26:23;33.50;27.00;18.00
76049;PMS7003;64967;50.234;19.224;2023-12-14T04:28:50;41.75;32.50;20.00
76049;PMS7003;64967;50.234;19.224;2023-12-14T04:31:17;31.50;26.75;16.25
76049;PMS7003;64967;50.234;19.224;2023-12-14T04:33:43;27.25;22.75;17.50
76049;PMS7003;64967;50.234;19.224;2023-12-14T04:36:10;28.00;25.25;17.50
76049;PMS7003;64967;50.234;19.224;2023-12-14T04:38:36;22.50;20.75;14.00
76049;PMS7003;64967;50.234;19.224;2023-12-14T04:41:03;28.50;20.00;12.50
76049;PMS7003;64967;50.234;19.224;2023-12-14T04:43:32;20.50;18.25;11.75
76049;PMS7003;64967;50.234;19.224;2023-12-14T04:45:59;20.00;15.00;11.50
76049;PMS7003;64967;50.234;19.224;2023-12-14T04:48:25;21.50;16.00;9.50
76049;PMS7003;64967;50.234;19.224;2023-12-14T04:50:52;12.25;11.00;7.00
76049;PMS7003;64967;50.234;19.224;2023-12-14T04:53:19;13.50;11.50;9.00
76049;PMS7003;64967;50.234;19.224;2023-12-14T04:55:45;19.25;16.50;12.25
76049;PMS7003;64967;50.234;19.224;2023-12-14T04:58:12;13.25;10.00;6.00
76049;PMS7003;64967;50.234;19.224;2023-12-14T05:00:39;17.75;10.75;7.00
76049;PMS7003;64967;50.234;19.224;2023-12-14T05:03:06;13.00;11.00;7.50
76049;PMS7003;64967;50.234;19.224;2023-12-14T05:05:32;15.75;11.75;9.00
76049;PMS7003;64967;50.234;19.224;2023-12-14T05:07:59;14.00;12.00;9.00
76049;PMS7003;64967;50.234;19.224;2023-12-14T05:10:26;14.25;10.50;7.00
76049;PMS7003;64967;50.234;19.224;2023-12-14T05:12:53;12.25;11.00;9.00
76049;PMS7003;64967;50.234;19.224;2023-12-14T05:15:20;12.25;10.00;6.00
76049;PMS7003;64967;50.234;19.224;2023-12-14T05:17:47;9.50;5.75;3.00
76049;PMS7003;64967;50.234;19.224;2023-12-14T05:20:14;6.75;6.75;5.50
76049;PMS7003;64967;50.234;19.224;2023-12-14T05:22:40;6.00;5.00;3.00
76049;PMS7003;64967;50.234;19.224;2023-12-14T05:25:07;6.00;6.00;5.00
76049;PMS7003;64967;50.234;19.224;2023-12-14T05:27:35;7.25;6.50;4.00
76049;PMS7003;64967;50.234;19.224;2023-12-14T05:30:01;14.50;11.00;9.25
76049;PMS7003;64967;50.234;19.224;2023-12-14T05:32:29;13.00;11.50;9.00
76049;PMS7003;64967;50.234;19.224;2023-12-14T05:34:55;19.50;14.50;10.00
76049;PMS7003;64967;50.234;19.224;2023-12-14T05:37:22;19.75;17.25;13.00
76049;PMS7003;64967;50.234;19.224;2023-12-14T05:39:49;20.00;16.50;11.00
76049;PMS7003;64967;50.234;19.224;2023-12-14T05:42:18;22.00;18.25;11.00
76049;PMS7003;64967;50.234;19.224;2023-12-14T05:44:45;24.75;19.00;13.50
76049;PMS7003;64967;50.234;19.224;2023-12-14T05:47:11;36.75;31.50;19.75
76049;PMS7003;64967;50.234;19.224;2023-12-14T05:49:42;37.00;30.50;19.25
76049;PMS7003;64967;50.234;19.224;2023-12-14T05:52:09;34.50;28.50;21.00
76049;PMS7003;64967;50.234;19.224;2023-12-14T05:54:36;28.50;22.50;18.75
76049;PMS7003;64967;50.234;19.224;2023-12-14T05:57:04;34.25;25.00;15.50
76049;PMS7003;64967;50.234;19.224;2023-12-14T05:59:31;32.50;25.25;17.50
76049;PMS7003;64967;50.234;19.224;2023-12-14T06:01:58;24.50;21.50;15.75
76049;PMS7003;64967;50.234;19.224;2023-12-14T06:04:26;26.25;22.25;15.25
76049;PMS7003;64967;50.234;19.224;2023-12-14T06:06:53;29.00;23.00;16.25
76049;PMS7003;64967;50.234;19.224;2023-12-14T06:09:20;22.00;18.50;14.50
76049;PMS7003;64967;50.234;19.224;2023-12-14T06:11:51;36.25;31.00;21.50
76049;PMS7003;64967;50.234;19.224;2023-12-14T06:14:17;40.25;29.25;17.00
76049;PMS7003;64967;50.234;19.224;2023-12-14T06:16:45;32.00;27.00;16.50
76049;PMS7003;64967;50.234;19.224;2023-12-14T06:19:12;29.50;25.50;17.25
76049;PMS7003;64967;50.234;19.224;2023-12-14T06:21:39;28.25;23.75;16.75
76049;PMS7003;64967;50.234;19.224;2023-12-14T06:24:07;27.00;19.50;14.75
76049;PMS7003;64967;50.234;19.224;2023-12-14T06:26:33;16.25;14.75;10.50
76049;PMS7003;64967;50.234;19.224;2023-12-14T06:29:00;22.25;17.25;13.25
76049;PMS7003;64967;50.234;19.224;2023-12-14T06:31:27;18.75;17.50;11.50
76049;PMS7003;64967;50.234;19.224;2023-12-14T06:33:54;18.50;16.50;12.50
76049;PMS7003;64967;50.234;19.224;2023-12-14T06:36:26;23.00;19.25;14.50
76049;PMS7003;64967;50.234;19.224;2023-12-14T06:38:56;16.75;14.75;11.00
76049;PMS7003;64967;50.234;19.224;2023-12-14T06:41:24;19.25;16.50;11.00
76049;PMS7003;64967;50.234;19.224;2023-12-14T06:43:51;17.50;15.50;10.75
76049;PMS7003;64967;50.234;19.224;2023-12-14T06:46:18;19.00;16.75;11.00
76049;PMS7003;64967;50.234;19.224;2023-12-14T06:48:46;16.75;15.00;10.50
76049;PMS7003;64967;50.234;19.224;2023-12-14T06:51:13;26.25;20.25;13.75
76049;PMS7003;64967;50.234;19.224;2023-12-14T06:53:41;29.75;25.25;18.75
76049;PMS7003;64967;50.234;19.224;2023-12-14T06:56:09;25.25;22.25;15.25
76049;PMS7003;64967;50.234;19.224;2023-12-14T06:58:38;25.25;22.25;15.00
76049;PMS7003;64967;50.234;19.224;2023-12-14T07:01:05;30.75;23.25;15.75
76049;PMS7003;64967;50.234;19.224;2023-12-14T07:03:32;19.75;16.75;11.50
76049;PMS7003;64967;50.234;19.224;2023-12-14T07:05:59;21.00;18.50;13.00
76049;PMS7003;64967;50.234;19.224;2023-12-14T07:08:26;16.25;13.75;9.75
76049;PMS7003;64967;50.234;19.224;2023-12-14T07:10:52;13.25;11.25;7.50
76049;PMS7003;64967;50.234;19.224;2023-12-14T07:13:19;24.25;14.00;10.00
76049;PMS7003;64967;50.234;19.224;2023-12-14T07:15:47;19.50;12.50;8.25
76049;PMS7003;64967;50.234;19.224;2023-12-14T07:18:13;15.50;10.00;7.50
76049;PMS7003;64967;50.234;19.224;2023-12-14T07:20:40;9.00;7.25;6.75
76049;PMS7003;64967;50.234;19.224;2023-12-14T07:23:07;9.25;8.25;7.00
76049;PMS7003;64967;50.234;19.224;2023-12-14T07:25:34;5.75;5.00;3.50
76049;PMS7003;64967;50.234;19.224;2023-12-14T07:28:00;13.75;8.00;7.00
76049;PMS7003;64967;50.234;19.224;2023-12-14T07:30:27;9.25;6.00;5.00
76049;PMS7003;64967;50.234;19.224;2023-12-14T07:32:54;7.00;6.00;5.00
76049;PMS7003;64967;50.234;19.224;2023-12-14T07:35:20;8.25;7.00;6.00
76049;PMS7003;64967;50.234;19.224;2023-12-14T07:37:47;7.25;7.25;6.25
76049;PMS7003;64967;50.234;19.224;2023-12-14T07:40:13;6.00;5.75;4.50
76049;PMS7003;64967;50.234;19.224;2023-12-14T07:42:40;9.00;6.00;5.00
76049;PMS7003;64967;50.234;19.224;2023-12-14T07:45:07;7.00;6.00;5.00
76049;PMS7003;64967;50.234;19.224;2023-12-14T07:47:35;7.75;7.00;5.00
76049;PMS7003;64967;50.234;19.224;2023-12-14T07:50:03;16.50;15.25;11.00
76049;PMS7003;64967;50.234;19.224;2023-12-14T07:52:30;28.25;20.00;14.50
76049;PMS7003;64967;50.234;19.224;2023-12-14T07:54:56;26.25;22.50;14.00
76049;PMS7003;64967;50.234;19.224;2023-12-14T07:57:23;28.50;23.00;16.50
76049;PMS7003;64967;50.234;19.224;2023-12-14T07:59:50;18.00;16.00;11.50
76049;PMS7003;64967;50.234;19.224;2023-12-14T08:02:16;23.00;15.75;10.25
76049;PMS7003;64967;50.234;19.224;2023-12-14T08:04:43;28.75;23.50;15.50
76049;PMS7003;64967;50.234;19.224;2023-12-14T08:07:10;29.75;25.75;18.00
76049;PMS7003;64967;50.234;19.224;2023-12-14T08:09:36;30.00;20.75;14.00
76049;PMS7003;64967;50.234;19.224;2023-12-14T08:12:03;23.75;18.75;14.75
76049;PMS7003;64967;50.234;19.224;2023-12-14T08:14:31;18.00;16.00;12.25
76049;PMS7003;64967;50.234;19.224;2023-12-14T08:16:59;19.75;18.75;13.00
76049;PMS7003;64967;50.234;19.224;2023-12-14T08:19:26;18.75;15.00;11.00
76049;PMS7003;64967;50.234;19.224;2023-12-14T08:21:53;13.00;9.00;6.00
76049;PMS7003;64967;50.234;19.224;2023-12-14T08:24:20;12.00;8.25;6.00
76049;PMS7003;64967;50.234;19.224;2023-12-14T08:26:47;19.00;13.50;10.00
76049;PMS7003;64967;50.234;19.224;2023-12-14T08:29:13;19.50;12.50;8.75
76049;PMS7003;64967;50.234;19.224;2023-12-14T08:31:40;24.25;20.50;15.25
76049;PMS7003;64967;50.234;19.224;2023-12-14T08:34:06;33.50;27.00;17.50
76049;PMS7003;64967;50.234;19.224;2023-12-14T08:36:33;29.50;24.50;19.00
76049;PMS7003;64967;50.234;19.224;2023-12-14T08:39:00;26.75;22.50;16.00
76049;PMS7003;64967;50.234;19.224;2023-12-14T08:41:27;31.00;28.25;20.25
76049;PMS7003;64967;50.234;19.224;2023-12-14T08:43:53;37.25;32.75;21.75
76049;PMS7003;64967;50.234;19.224;2023-12-14T08:46:22;32.50;29.00;20.25
76049;PMS7003;64967;50.234;19.224;2023-12-14T08:48:49;54.67;42.00;27.67
76049;PMS7003;64967;50.234;19.224;2023-12-14T08:51:15;48.00;39.25;25.00
76049;PMS7003;64967;50.234;19.224;2023-12-14T08:53:43;57.00;42.00;28.00
76049;PMS7003;64967;50.234;19.224;2023-12-14T08:56:10;46.75;37.25;25.25
76049;PMS7003;64967;50.234;19.224;2023-12-14T08:58:37;42.00;38.00;25.25
76049;PMS7003;64967;50.234;19.224;2023-12-14T09:01:03;39.25;33.75;23.00
76049;PMS7003;64967;50.234;19.224;2023-12-14T09:03:30;32.75;26.25;17.25
76049;PMS7003;64967;50.234;19.224;2023-12-14T09:05:57;31.00;27.75;20.00
76049;PMS7003;64967;50.234;19.224;2023-12-14T09:08:25;32.25;25.25;17.00
76049;PMS7003;64967;50.234;19.224;2023-12-14T09:10:51;34.00;30.00;16.00
76049;PMS7003;64967;50.234;19.224;2023-12-14T09:13:18;28.00;20.00;15.50
76049;PMS7003;64967;50.234;19.224;2023-12-14T09:15:45;31.00;25.75;19.50
76049;PMS7003;64967;50.234;19.224;2023-12-14T09:18:12;42.50;31.00;23.00
76049;PMS7003;64967;50.234;19.224;2023-12-14T09:20:38;41.00;37.25;23.25
76049;PMS7003;64967;50.234;19.224;2023-12-14T09:23:07;46.00;33.25;22.75
76049;PMS7003;64967;50.234;19.224;2023-12-14T09:25:33;37.75;28.00;19.00
76049;PMS7003;64967;50.234;19.224;2023-12-14T09:28:00;24.50;22.25;15.00
76049;PMS7003;64967;50.234;19.224;2023-12-14T09:30:27;29.00;24.75;15.00
76049;PMS7003;64967;50.234;19.224;2023-12-14T09:32:54;38.50;30.75;19.50
76049;PMS7003;64967;50.234;19.224;2023-12-14T09:35:21;35.00;32.50;17.00
76049;PMS7003;64967;50.234;19.224;2023-12-14T09:37:47;28.75;20.00;14.25
76049;PMS7003;64967;50.234;19.224;2023-12-14T09:40:14;26.25;18.25;13.50
76049;PMS7003;64967;50.234;19.224;2023-12-14T09:42:42;23.25;20.25;14.00
76049;PMS7003;64967;50.234;19.224;2023-12-14T09:45:09;24.25;19.00;12.00
76049;PMS7003;64967;50.234;19.224;2023-12-14T09:47:36;25.00;20.00;14.75
76049;PMS7003;64967;50.234;19.224;2023-12-14T09:50:05;28.75;24.75;17.25
76049;PMS7003;64967;50.234;19.224;2023-12-14T09:52:32;26.50;24.75;15.25
76049;PMS7003;64967;50.234;19.224;2023-12-14T09:55:00;29.75;25.00;18.25
76049;PMS7003;64967;50.234;19.224;2023-12-14T09:57:27;30.25;26.25;20.75
76049;PMS7003;64967;50.234;19.224;2023-12-14T09:59:53;26.25;25.00;17.00
76049;PMS7003;64967;50.234;19.224;2023-12-14T10:02:24;39.50;31.25;20.75
76049;PMS7003;64967;50.234;19.224;2023-12-14T10:04:53;34.50;30.75;20.50
76049;PMS7003;64967;50.234;19.224;2023-12-14T10:07:21;27.00;22.25;16.00
76049;PMS7003;64967;50.234;19.224;2023-12-14T10:09:48;24.75;18.75;14.75
76049;PMS7003;64967;50.234;19.224;2023-12-14T10:12:14;22.00;17.00;12.00
76049;PMS7003;64967;50.234;19.224;2023-12-14T10:14:41;16.25;11.25;9.00
76049;PMS7003;64967;50.234;19.224;2023-12-14T10:17:20;17.50;16.00;12.25
76049;PMS7003;64967;50.234;19.224;2023-12-14T10:19:48;24.25;20.25;15.00
76049;PMS7003;64967;50.234;19.224;2023-12-14T10:22:16;23.75;22.00;16.25
76049;PMS7003;64967;50.234;19.224;2023-12-14T10:24:46;24.00;19.50;11.75
76049;PMS7003;64967;50.234;19.224;2023-12-14T10:27:14;25.00;21.00;15.75
76049;PMS7003;64967;50.234;19.224;2023-12-14T10:29:42;31.75;26.50;17.00
76049;PMS7003;64967;50.234;19.224;2023-12-14T10:32:11;23.25;20.25;15.00
76049;PMS7003;64967;50.234;19.224;2023-12-14T10:34:38;23.75;20.00;13.50
76049;PMS7003;64967;50.234;19.224;2023-12-14T10:37:06;18.75;17.25;14.00
76049;PMS7003;64967;50.234;19.224;2023-12-14T10:39:33;17.00;12.25;10.00
76049;PMS7003;64967;50.234;19.224;2023-12-14T10:42:04;20.25;17.00;13.25
76049;PMS7003;64967;50.234;19.224;2023-12-14T10:44:45;14.00;12.00;10.25
76049;PMS7003;64967;50.234;19.224;2023-12-14T10:47:34;25.00;22.00;16.00
76049;PMS7003;64967;50.234;19.224;2023-12-14T10:50:01;21.00;20.25;15.00
76049;PMS7003;64967;50.234;19.224;2023-12-14T10:52:28;16.00;15.75;12.00
76049;PMS7003;64967;50.234;19.224;2023-12-14T10:54:58;18.00;15.00;8.00
76049;PMS7003;64967;50.234;19.224;2023-12-14T10:57:28;17.75;16.25;11.75
76049;PMS7003;64967;50.234;19.224;2023-12-14T10:59:58;19.25;17.50;11.75
76049;PMS7003;64967;50.234;19.224;2023-12-14T11:02:26;23.25;19.50;12.25
76049;PMS7003;64967;50.234;19.224;2023-12-14T11:05:02;15.50;13.25;10.50
76049;PMS7003;64967;50.234;19.224;2023-12-14T11:07:45;15.00;12.75;9.50
76049;PMS7003;64967;50.234;19.224;2023-12-14T11:10:14;14.75;12.25;10.25
76049;PMS7003;64967;50.234;19.224;2023-12-14T11:12:49;14.00;10.75;7.00
76049;PMS7003;64967;50.234;19.224;2023-12-14T11:15:18;15.75;12.50;10.00
76049;PMS7003;64967;50.234;19.224;2023-12-14T11:20:56;15.50;14.75;11.00
76049;PMS7003;64967;50.234;19.224;2023-12-14T11:26:05;14.25;11.00;8.00
76049;PMS7003;64967;50.234;19.224;2023-12-14T11:28:33;22.00;21.00;14.50
76049;PMS7003;64967;50.234;19.224;2023-12-14T11:31:02;42.25;26.75;20.00
76049;PMS7003;64967;50.234;19.224;2023-12-14T11:33:33;26.25;21.25;12.25
76049;PMS7003;64967;50.234;19.224;2023-12-14T11:36:01;29.25;22.25;12.25
76049;PMS7003;64967;50.234;19.224;2023-12-14T11:38:29;26.00;17.50;10.00
76049;PMS7003;64967;50.234;19.224;2023-12-14T11:40:57;23.25;21.25;15.00
76049;PMS7003;64967;50.234;19.224;2023-12-14T11:43:28;18.75;15.75;12.00
76049;PMS7003;64967;50.234;19.224;2023-12-14T11:45:55;16.00;15.75;10.00
76049;PMS7003;64967;50.234;19.224;2023-12-14T11:48:22;21.50;15.00;11.50
76049;PMS7003;64967;50.234;19.224;2023-12-14T11:50:49;13.00;11.25;8.00
76049;PMS7003;64967;50.234;19.224;2023-12-14T11:53:16;21.00;15.00;11.00
76049;PMS7003;64967;50.234;19.224;2023-12-14T11:55:42;16.00;12.50;10.00
76049;PMS7003;64967;50.234;19.224;2023-12-14T11:58:12;7.50;6.75;3.00
76049;PMS7003;64967;50.234;19.224;2023-12-14T12:00:41;17.25;16.25;11.50
76049;PMS7003;64967;50.234;19.224;2023-12-14T12:03:18;23.50;16.50;10.75
76049;PMS7003;64967;50.234;19.224;2023-12-14T12:05:48;26.75;24.75;15.00
76049;PMS7003;64967;50.234;19.224;2023-12-14T12:08:18;31.00;27.00;16.25
76049;PMS7003;64967;50.234;19.224;2023-12-14T12:10:47;30.50;25.00;17.00
76049;PMS7003;64967;50.234;19.224;2023-12-14T12:13:18;33.50;25.75;19.25
76049;PMS7003;64967;50.234;19.224;2023-12-14T12:15:47;31.00;25.25;15.50
76049;PMS7003;64967;50.234;19.224;2023-12-14T12:18:15;36.50;25.00;15.50
76049;PMS7003;64967;50.234;19.224;2023-12-14T12:20:43;28.00;21.00;16.00
76049;PMS7003;64967;50.234;19.224;2023-12-14T12:23:10;30.00;25.25;16.25
76049;PMS7003;64967;50.234;19.224;2023-12-14T12:25:37;39.50;31.00;17.75
76049;PMS7003;64967;50.234;19.224;2023-12-14T12:28:04;38.75;29.75;20.25
76049;PMS7003;64967;50.234;19.224;2023-12-14T12:30:31;31.00;26.50;16.00
76049;PMS7003;64967;50.234;19.224;2023-12-14T12:32:58;26.75;20.25;11.00
76049;PMS7003;64967;50.234;19.224;2023-12-14T12:35:25;23.25;22.00;15.50
76049;PMS7003;64967;50.234;19.224;2023-12-14T12:37:52;51.50;34.50;22.00
76049;PMS7003;64967;50.234;19.224;2023-12-14T12:40:22;42.00;34.25;24.75
76049;PMS7003;64967;50.234;19.224;2023-12-14T12:42:49;43.00;35.50;21.25
76049;PMS7003;64967;50.234;19.224;2023-12-14T12:45:16;34.75;27.00;16.25
76049;PMS7003;64967;50.234;19.224;2023-12-14T12:47:49;27.50;26.25;18.25
76049;PMS7003;64967;50.234;19.224;2023-12-14T12:50:16;30.50;26.00;17.00
76049;PMS7003;64967;50.234;19.224;2023-12-14T12:52:43;31.50;26.00;17.00
76049;PMS7003;64967;50.234;19.224;2023-12-14T12:55:12;38.25;33.00;19.50
76049;PMS7003;64967;50.234;19.224;2023-12-14T12:57:39;25.75;23.00;15.75
76049;PMS7003;64967;50.234;19.224;2023-12-14T13:00:06;39.50;29.75;18.75
76049;PMS7003;64967;50.234;19.224;2023-12-14T13:02:38;35.00;27.25;17.00
76049;PMS7003;64967;50.234;19.224;2023-12-14T13:05:06;36.25;25.50;16.75
76049;PMS7003;64967;50.234;19.224;2023-12-14T13:07:35;45.50;35.00;23.75
76049;PMS7003;64967;50.234;19.224;2023-12-14T13:10:03;40.00;34.75;24.00
76049;PMS7003;64967;50.234;19.224;2023-12-14T13:12:50;53.00;37.25;20.00
76049;PMS7003;64967;50.234;19.224;2023-12-14T13:15:16;42.25;30.75;21.75
76049;PMS7003;64967;50.234;19.224;2023-12-14T13:17:45;39.75;31.25;23.00
76049;PMS7003;64967;50.234;19.224;2023-12-14T13:20:12;33.50;30.00;19.00
76049;PMS7003;64967;50.234;19.224;2023-12-14T13:22:38;38.50;28.75;19.00
76049;PMS7003;64967;50.234;19.224;2023-12-14T13:25:06;34.75;27.25;19.75
76049;PMS7003;64967;50.234;19.224;2023-12-14T13:27:32;38.33;34.00;23.67
76049;PMS7003;64967;50.234;19.224;2023-12-14T13:30:03;42.25;32.75;16.75
76049;PMS7003;64967;50.234;19.224;2023-12-14T13:32:30;42.00;29.50;21.50
76049;PMS7003;64967;50.234;19.224;2023-12-14T13:34:57;41.25;32.25;22.25
76049;PMS7003;64967;50.234;19.224;2023-12-14T13:37:24;40.25;32.00;20.50
76049;PMS7003;64967;50.234;19.224;2023-12-14T13:39:50;42.50;34.50;22.25
76049;PMS7003;64967;50.234;19.224;2023-12-14T13:42:19;31.75;25.75;19.00
76049;PMS7003;64967;50.234;19.224;2023-12-14T13:44:46;34.00;28.00;19.75
76049;PMS7003;64967;50.234;19.224;2023-12-14T13:47:12;36.50;31.50;21.25